Pleasant Ridge, Louisiana
Current Conditions -  °F | °C
As of 7:53 AM on Thursday 18 Dec 2014 (Local Time) from KESF Reporting Station
Light Rain Light Rain  
Wind Chill: 11°   Ceiling: 2300
Heat Index: 11°   Visibility: 10mi
Dew Point:   Wind: 0mph
Humidity: 74%   Direction: NA
Pressure: 30.15"   Gusts: NA
Location:  31.8657°N, 92.2616°W
Report Text: KESF 181353Z AUTO 00000KT 10SM -RA OVC023 11/07 A3015 RMK AO2 RAB52 SLP210 P0000 T01110067
Loading
Personal Weather Stations






























Interactive Weather Map New forecast layout! Learn more

10-Day Weather Forecast

Advertisements
Track Severe Weather on mobile